CDT,Max TemperatureF,Mean TemperatureF,Min TemperatureF,Max Dew PointF,MeanDew PointF,Min DewpointF,Max Humidity, Mean Humidity, Min Humidity, Max Sea Level PressureIn, Mean Sea Level PressureIn, Min Sea Level PressureIn, Max VisibilityMiles, Mean VisibilityMiles, Min VisibilityMiles, Max Wind SpeedMPH, Mean Wind SpeedMPH, Max Gust SpeedMPH,PrecipitationIn, CloudCover, Events, WindDirDegrees
2012-10-1,78,73,68,77,68,61,94,80,65,29.74,29.62,29.55,10,10,2,18,11,24,0.53,7,Rain,228
2012-10-2,78,70,62,64,62,57,100,77,47,30.02,29.87,29.74,10,9,4,9,4,,0.00,3,,284
2012-10-3,82,70,59,66,62,59,100,79,45,30.14,30.08,30.02,10,9,7,6,1,,0.00,1,,72
2012-10-4,87,74,62,70,64,59,100,77,38,30.23,30.18,30.14,10,8,0,8,4,,0.00,0,Fog,38
2012-10-5,87,74,62,73,68,63,100,85,52,30.16,30.08,30.01,10,8,0,8,2,,0.00,1,Fog,17
2012-10-6,87,76,64,73,66,61,100,76,40,30.03,29.99,29.93,10,7,0,7,2,,0.00,2,Fog,322
2012-10-7,78,69,59,66,60,54,100,79,57,30.09,30.04,30.00,10,10,7,14,8,18,0.00,2,,350
2012-10-8,77,65,53,55,53,50,88,67,47,30.13,30.08,30.03,10,10,5,13,7,18,0.00,1,,352
2012-10-9,78,66,53,61,55,50,100,75,44,30.14,30.08,30.03,10,10,2,8,5,,0.00,0,,356
2012-10-10,84,70,55,64,60,55,100,79,45,30.17,30.12,30.08,10,8,2,10,2,,0.00,1,,328
2012-10-11,84,72,59,64,62,59,100,82,42,30.25,30.19,30.15,10,6,0,8,1,,0.00,0,Fog,31
2012-10-12,82,68,55,68,61,55,100,84,48,30.28,30.22,30.18,10,6,0,8,1,,0.00,1,Fog,225
2012-10-13,86,72,59,68,63,59,100,79,48,30.25,30.19,30.15,10,7,0,13,2,16,0.00,1,Fog,120
2012-10-14,86,74,62,73,68,63,100,85,55,30.16,30.08,30.00,10,6,0,10,2,,0.00,3,Fog,161
2012-10-15,86,73,60,73,65,54,100,73,42,30.01,29.96,29.90,10,9,0,12,3,16,0.00,2,Fog-Rain,322
2012-10-16,80,66,51,61,53,43,100,69,26,30.01,29.94,29.87,10,10,7,10,2,,0.00,0,,35
2012-10-17,80,68,55,68,59,52,100,74,48,29.92,29.86,29.80,10,9,7,12,3,16,0.00,1,,164
2012-10-18,80,68,55,75,67,54,100,84,54,29.89,29.82,29.76,10,9,4,10,6,22,0.06,4,Rain,197
2012-10-19,78,62,46,52,47,37,100,61,25,29.96,29.90,29.85,10,10,7,10,2,16,0.00,0,,259
2012-10-20,78,61,44,55,48,37,100,75,24,30.02,29.97,29.91,10,9,3,8,1,,0.00,0,,288
2012-10-21,84,65,46,61,51,43,100,74,23,30.14,30.08,30.01,10,7,0,9,1,,0.00,0,Fog,53
2012-10-22,84,67,50,59,53,48,100,71,29,30.16,30.11,30.07,10,9,3,10,3,16,0.00,0,,88
2012-10-23,86,70,53,66,60,54,100,78,37,30.13,30.07,30.03,10,7,0,10,3,,0.00,2,Fog,76
2012-10-24,86,70,55,68,61,55,100,80,43,30.11,30.05,30.01,10,7,0,9,2,,0.00,2,Fog,57
2012-10-25,86,70,55,68,62,55,100,82,45,30.01,29.97,29.94,10,7,0,9,2,,0.00,2,Fog,73
2012-10-26,87,74,60,68,63,61,100,76,40,29.99,29.93,29.88,10,8,0,10,3,20,0.00,2,Fog,354
2012-10-27,69,61,53,64,52,45,88,78,63,29.96,29.93,29.90,10,10,7,16,11,25,0.00,7,,338
2012-10-28,66,58,50,46,42,37,82,57,37,30.07,29.97,29.92,10,10,7,18,11,29,0.00,2,,329
2012-10-29,62,53,44,37,35,32,71,49,32,30.12,30.05,29.98,10,10,10,17,11,25,0.00,0,,330
2012-10-30,68,57,46,43,36,32,66,49,26,30.07,30.02,29.95,10,10,10,13,8,20,0.00,0,,302
2012-10-31,71,56,42,63,52,41,100,78,49,30.06,30.01,29.96,10,10,7,10,3,,0.00,0,,235